Time;durP1;ratioP1;P1;durP2;ratioP2;P2;SDS_P1;SDS_P2;PMS_P1;PMS_P2;Temp;Humidity;BMP_temperature;BMP_pressure;BME280_temperature;BME280_humidity;BME280_pressure;Samples;Min_cycle;Max_cycle;Signal;HPM_P1;HPM_P2
2021/12/11 00:01:04;;;;;;;;;4.00;4.00;;;;;20.55;36.99;100673.94;5094367;27;51116;-46
2021/12/11 00:03:34;;;;;;;;;5.00;3.00;;;;;20.53;36.94;100676.09;5093735;27;51145;-45
2021/12/11 00:06:17;;;;;;;;;6.00;4.00;;;;;20.51;36.90;100680.13;5077986;27;51811;-45
2021/12/11 00:08:45;;;;;;;;;3.50;3.00;;;;;20.50;36.36;100683.94;5093607;27;51239;-46
2021/12/11 00:11:23;;;;;;;;;2.00;2.00;;;;;20.47;36.96;100685.25;5083862;27;51129;-44
2021/12/11 00:13:55;;;;;;;;;3.50;2.75;;;;;20.46;36.93;100705.56;5085569;27;51082;-45
2021/12/11 00:16:23;;;;;;;;;2.00;2.00;;;;;20.43;36.92;100706.03;5088046;27;51046;-43
2021/12/11 00:18:52;;;;;;;;;4.00;4.00;;;;;20.42;36.77;100707.03;5096881;27;51091;-44
2021/12/11 00:21:19;;;;;;;;;3.50;3.50;;;;;20.40;36.61;100707.28;5087225;27;51158;-45
2021/12/11 00:23:51;;;;;;;;;2.25;2.25;;;;;20.39;36.41;100710.25;5091585;27;50990;-44
2021/12/11 00:26:29;;;;;;;;;5.50;3.25;;;;;20.36;36.93;100722.56;5080626;27;53096;-44
2021/12/11 00:28:55;;;;;;;;;4.50;3.75;;;;;20.36;37.09;100729.97;5088517;27;51419;-46
2021/12/11 00:31:21;;;;;;;;;3.00;3.00;;;;;20.34;36.89;100716.44;5064904;27;51016;-47
2021/12/11 00:33:48;;;;;;;;;5.00;2.00;;;;;20.34;37.01;100721.09;5089166;27;51077;-43
2021/12/11 00:36:18;;;;;;;;;4.50;1.50;;;;;20.32;37.11;100736.97;5080064;27;53887;-44
2021/12/11 00:38:47;;;;;;;;;1.25;1.25;;;;;20.31;36.69;100738.03;5088344;27;51294;-45
2021/12/11 00:41:14;;;;;;;;;2.00;2.00;;;;;20.29;36.70;100738.25;5084775;27;51068;-40
2021/12/11 00:43:41;;;;;;;;;2.50;2.00;;;;;20.28;37.10;100744.84;5084021;27;51236;-41
2021/12/11 00:46:11;;;;;;;;;5.75;2.75;;;;;20.27;36.56;100756.91;5084443;27;51540;-50
2021/12/11 00:48:38;;;;;;;;;3.75;2.25;;;;;20.25;36.94;100763.69;5084108;27;51298;-47
2021/12/11 00:51:11;;;;;;;;;2.75;2.75;;;;;20.23;36.84;100769.44;5085958;27;51126;-45
2021/12/11 00:53:41;;;;;;;;;2.00;2.00;;;;;20.22;36.80;100769.63;5086130;27;51132;-44
2021/12/11 00:56:19;;;;;;;;;2.75;2.75;;;;;20.20;36.78;100775.34;5090332;27;51061;-45
2021/12/11 00:58:48;;;;;;;;;2.75;2.75;;;;;20.18;36.92;100775.56;5094881;27;51001;-45
2021/12/11 01:01:20;;;;;;;;;3.25;3.00;;;;;20.17;36.73;100784.91;5081865;27;51120;-45
2021/12/11 01:03:57;;;;;;;;;3.00;1.75;;;;;20.16;36.78;100783.22;5088458;27;51261;-46
2021/12/11 01:06:45;;;;;;;;;2.50;1.00;;;;;20.14;36.56;100793.59;5070420;27;54059;-49
2021/12/11 01:09:16;;;;;;;;;1.00;1.00;;;;;20.12;36.88;100801.22;5087382;27;51392;-47
2021/12/11 01:11:45;;;;;;;;;2.75;1.50;;;;;20.12;37.07;100809.47;5082290;27;51117;-45
2021/12/11 01:14:23;;;;;;;;;4.00;2.25;;;;;20.11;36.97;100806.94;5079983;27;51036;-45
2021/12/11 01:17:03;;;;;;;;;2.25;2.00;;;;;20.08;36.68;100810.97;5079918;27;51731;-45
2021/12/11 01:19:36;;;;;;;;;3.00;1.00;;;;;20.08;36.98;100813.72;5095591;27;50961;-45
2021/12/11 01:22:10;;;;;;;;;3.00;3.00;;;;;20.05;36.90;100819.66;5099315;27;51709;-43
2021/12/11 01:24:44;;;;;;;;;2.75;1.25;;;;;20.05;37.04;100830.66;5104183;27;51350;-42
2021/12/11 01:27:14;;;;;;;;;2.75;2.00;;;;;20.04;36.66;100837.22;5077077;27;51971;-41
2021/12/11 01:29:40;;;;;;;;;1.75;1.75;;;;;20.03;36.95;100842.97;5084482;27;51154;-41
2021/12/11 01:32:07;;;;;;;;;2.50;1.75;;;;;20.02;36.65;100835.78;5098591;27;50979;-44
2021/12/11 01:34:34;;;;;;;;;1.50;1.00;;;;;20.01;36.93;100836.81;5078311;27;51296;-42
2021/12/11 01:37:00;;;;;;;;;1.00;1.00;;;;;19.99;36.73;100850.78;5071557;27;51773;-41
2021/12/11 01:39:34;;;;;;;;;5.00;1.00;;;;;19.99;36.78;100860.94;5089056;27;51126;-42
2021/12/11 01:42:00;;;;;;;;;3.00;3.00;;;;;19.98;36.60;100856.50;5075332;27;51177;-42
2021/12/11 01:44:33;;;;;;;;;3.25;2.25;;;;;19.96;36.77;100859.47;5088110;27;51200;-41
2021/12/11 01:47:14;;;;;;;;;2.50;2.00;;;;;19.97;36.94;100865.81;5085053;27;51063;-41
2021/12/11 01:49:44;;;;;;;;;3.00;2.00;;;;;19.94;36.88;100871.75;5079141;27;50905;-41
2021/12/11 01:52:39;;;;;;;;;2.75;1.00;;;;;19.94;37.03;100871.75;5083065;27;51350;-42
2021/12/11 01:55:07;;;;;;;;;1.50;0.50;;;;;19.93;36.99;100873.66;5086614;27;51205;-42
2021/12/11 01:57:33;;;;;;;;;1.75;1.75;;;;;19.91;36.83;100872.19;5087698;27;52791;-41
2021/12/11 02:00:21;;;;;;;;;3.50;2.50;;;;;19.90;36.89;100865.84;5108558;27;51227;-42
2021/12/11 02:02:52;;;;;;;;;1.75;1.50;;;;;19.89;36.72;100881.47;5081523;27;51060;-41
2021/12/11 02:05:30;;;;;;;;;2.75;1.75;;;;;19.88;36.94;100887.19;5078841;27;51038;-43
2021/12/11 02:08:00;;;;;;;;;1.00;1.00;;;;;19.87;36.60;100889.09;5080586;27;51807;-42
2021/12/11 02:10:33;;;;;;;;;1.75;1.00;;;;;19.85;36.99;100887.66;5091702;27;51400;-40
2021/12/11 02:12:59;;;;;;;;;2.00;2.00;;;;;19.84;36.97;100889.56;5084937;27;50982;-41
2021/12/11 02:15:33;;;;;;;;;2.75;1.75;;;;;19.83;36.59;100898.03;5084639;27;51544;-41
2021/12/11 02:18:08;;;;;;;;;0.75;0.75;;;;;19.81;36.79;100903.75;5077344;27;51547;-41
2021/12/11 02:20:41;;;;;;;;;1.50;1.00;;;;;19.81;36.66;100916.63;5093058;27;51105;-41
2021/12/11 02:23:07;;;;;;;;;2.00;0.75;;;;;19.80;36.82;100917.69;5089645;27;51086;-41
2021/12/11 02:25:38;;;;;;;;;5.50;2.00;;;;;19.79;37.04;100921.47;5092014;27;50988;-44
2021/12/11 02:28:12;;;;;;;;;1.25;0.25;;;;;19.78;36.56;100922.53;5082601;27;51150;-42
2021/12/11 02:30:41;;;;;;;;;3.75;2.00;;;;;19.78;36.69;100928.03;5084189;27;51043;-43
2021/12/11 02:33:20;;;;;;;;;3.00;3.00;;;;;19.77;37.00;100926.38;5085746;27;51440;-43
2021/12/11 02:35:55;;;;;;;;;1.25;1.25;;;;;19.75;37.07;100918.34;5093221;27;51328;-41
2021/12/11 02:38:24;;;;;;;;;3.25;1.00;;;;;19.74;36.86;100924.91;5091582;27;50915;-42
2021/12/11 02:41:02;;;;;;;;;2.00;2.00;;;;;19.72;36.97;100924.28;5091000;27;51270;-43
2021/12/11 02:43:27;;;;;;;;;1.00;1.00;;;;;19.72;36.82;100932.53;5091262;27;51129;-42
2021/12/11 02:46:18;;;;;;;;;2.00;2.00;;;;;19.72;36.69;100938.00;5081573;27;51117;-41
2021/12/11 02:48:58;;;;;;;;;2.00;1.00;;;;;19.72;36.75;100939.91;5106599;27;52918;-41
2021/12/11 02:51:37;;;;;;;;;3.75;2.00;;;;;19.70;36.78;100945.63;5068486;27;50827;-43
2021/12/11 02:54:13;;;;;;;;;0.75;0.75;;;;;19.69;36.55;100941.16;5088814;27;51123;-42
2021/12/11 02:56:43;;;;;;;;;3.75;3.00;;;;;19.68;36.85;100941.38;5084316;27;51084;-42
2021/12/11 02:59:18;;;;;;;;;2.25;1.00;;;;;19.68;36.68;100944.13;5077519;27;51030;-42
2021/12/11 03:02:16;;;;;;;;;1.00;1.00;;;;;19.66;36.80;100946.25;5088322;27;51204;-43
2021/12/11 03:04:54;;;;;;;;;0.75;0.75;;;;;19.66;36.56;100951.75;5078921;27;51098;-41
2021/12/11 03:07:35;;;;;;;;;1.75;0.00;;;;;19.65;36.78;100959.16;5081836;27;51147;-40
2021/12/11 03:10:07;;;;;;;;;0.25;0.00;;;;;19.64;36.93;100964.88;5094919;27;52906;-42
2021/12/11 03:12:32;;;;;;;;;3.00;1.00;;;;;19.63;36.71;100963.19;5080270;27;51051;-41
2021/12/11 03:14:58;;;;;;;;;1.00;1.00;;;;;19.62;36.93;100961.50;5090245;27;51322;-41
2021/12/11 03:17:25;;;;;;;;;1.00;1.00;;;;;19.61;36.76;100977.16;5089148;27;51215;-42
2021/12/11 03:19:53;;;;;;;;;1.75;1.75;;;;;19.60;36.48;100980.97;5096279;27;51766;-42
2021/12/11 03:22:23;;;;;;;;;1.00;1.00;;;;;19.59;37.02;100980.09;5097877;27;51059;-43
2021/12/11 03:24:49;;;;;;;;;0.75;0.75;;;;;19.59;36.89;100990.22;5088824;27;50915;-42
2021/12/11 03:27:15;;;;;;;;;1.00;1.00;;;;;19.58;37.01;101003.13;5088773;27;51239;-43
2021/12/11 03:29:42;;;;;;;;;0.25;0.25;;;;;19.58;36.87;101010.53;5088926;27;51800;-41
2021/12/11 03:32:10;;;;;;;;;2.00;0.75;;;;;19.56;37.02;101015.41;5074778;27;51204;-43
2021/12/11 03:34:37;;;;;;;;;0.75;0.75;;;;;19.56;37.10;101016.25;5081724;27;50932;-48
2021/12/11 03:37:07;;;;;;;;;1.00;1.00;;;;;19.55;36.94;101016.41;5083698;27;51172;-46
2021/12/11 03:39:37;;;;;;;;;0.00;0.00;;;;;19.56;36.84;101023.63;5087876;27;53853;-44
2021/12/11 03:42:11;;;;;;;;;2.00;0.75;;;;;19.54;37.04;101014.72;5083522;27;51079;-44
2021/12/11 03:44:38;;;;;;;;;1.25;1.25;;;;;19.53;36.93;101024.88;5087040;27;51152;-45
2021/12/11 03:47:16;;;;;;;;;1.75;1.00;;;;;19.53;36.84;101024.03;5104886;27;50959;-47
2021/12/11 03:49:42;;;;;;;;;1.75;0.75;;;;;19.52;36.92;101030.59;5090917;27;51892;-45
2021/12/11 03:52:09;;;;;;;;;0.75;0.75;;;;;19.51;36.73;101040.75;5074658;27;51439;-45
2021/12/11 03:54:37;;;;;;;;;1.75;0.25;;;;;19.50;36.85;101040.94;5102797;27;51129;-45
2021/12/11 03:57:06;;;;;;;;;1.00;1.00;;;;;19.49;36.86;101040.13;5084274;27;51106;-44
2021/12/11 03:59:32;;;;;;;;;2.25;0.75;;;;;19.48;36.93;101049.38;5088338;27;52652;-45
2021/12/11 04:02:03;;;;;;;;;1.00;1.00;;;;;19.48;36.98;101054.88;5080663;27;51211;-47
2021/12/11 04:04:34;;;;;;;;;1.00;1.00;;;;;19.48;37.00;101051.28;5097916;27;51100;-48
2021/12/11 04:07:01;;;;;;;;;0.75;0.75;;;;;19.46;36.90;101048.75;5079705;27;51285;-49
2021/12/11 04:09:28;;;;;;;;;1.25;0.00;;;;;19.45;37.00;101049.81;5084695;27;51763;-51
2021/12/11 04:11:56;;;;;;;;;1.50;0.75;;;;;19.45;36.96;101052.56;5074818;27;51268;-44
2021/12/11 04:14:27;;;;;;;;;2.00;1.00;;;;;19.44;37.30;101045.38;5081657;27;51112;-47
2021/12/11 04:16:53;;;;;;;;;2.00;0.75;;;;;19.43;36.75;101049.19;5084948;27;51212;-44
2021/12/11 04:19:19;;;;;;;;;1.75;0.75;;;;;19.42;36.94;101047.50;5080773;27;51749;-46
2021/12/11 04:21:45;;;;;;;;;3.00;1.25;;;;;19.42;36.82;101054.88;5090201;27;50863;-48
2021/12/11 04:24:13;;;;;;;;;1.00;0.25;;;;;19.42;36.94;101061.22;5088916;27;51137;-45
2021/12/11 04:26:39;;;;;;;;;0.75;0.75;;;;;19.41;36.99;101062.28;5088700;27;51048;-47
2021/12/11 04:29:06;;;;;;;;;0.00;0.00;;;;;19.40;36.92;101063.34;5086494;27;50994;-44
2021/12/11 04:31:34;;;;;;;;;3.75;1.25;;;;;19.40;36.90;101071.59;5071763;27;51381;-41
2021/12/11 04:34:05;;;;;;;;;1.00;1.00;;;;;19.40;37.14;101076.25;5110189;27;51250;-41
2021/12/11 04:36:40;;;;;;;;;1.50;1.00;;;;;19.38;36.79;101079.16;5085869;27;51073;-41
2021/12/11 04:39:10;;;;;;;;;0.00;0.00;;;;;19.38;36.78;101079.16;5087534;27;52035;-42
2021/12/11 04:41:48;;;;;;;;;0.00;0.00;;;;;19.36;36.89;101084.03;5084590;27;51134;-42
2021/12/11 04:44:22;;;;;;;;;1.00;0.00;;;;;19.36;36.98;101086.78;5079445;27;51126;-45
2021/12/11 04:46:49;;;;;;;;;1.50;1.50;;;;;19.36;37.10;101080.44;5080285;27;51553;-41
2021/12/11 04:49:29;;;;;;;;;1.00;1.00;;;;;19.34;37.01;101091.63;5078800;27;51224;-41
2021/12/11 04:52:04;;;;;;;;;0.50;0.50;;;;;19.33;36.96;101101.78;5082042;27;51320;-41
2021/12/11 05:05:18;;;;;;;;;1.00;1.00;;;;;19.31;36.98;101105.81;5086906;27;51337;-42
2021/12/11 05:08:01;;;;;;;;;2.00;0.75;;;;;19.29;36.98;101111.50;5088599;27;51214;-42
2021/12/11 05:10:50;;;;;;;;;0.00;0.00;;;;;19.29;36.88;101094.19;5087745;27;52197;-41
2021/12/11 05:13:16;;;;;;;;;0.00;0.00;;;;;19.27;36.77;101102.59;5082025;27;51262;-41
2021/12/11 05:15:47;;;;;;;;;1.00;0.00;;;;;19.28;36.70;101106.22;5077752;27;51106;-42
2021/12/11 05:18:17;;;;;;;;;0.75;0.75;;;;;19.27;36.89;101105.34;5072123;27;50973;-43
2021/12/11 05:20:46;;;;;;;;;2.00;1.75;;;;;19.27;36.82;101096.25;5082901;27;51873;-42
2021/12/11 05:23:13;;;;;;;;;1.00;1.00;;;;;19.26;36.69;101117.41;5096842;27;51138;-41
2021/12/11 05:25:38;;;;;;;;;0.75;0.50;;;;;19.26;37.00;101122.03;5072217;27;51160;-41
2021/12/11 05:28:04;;;;;;;;;1.00;0.00;;;;;19.24;36.79;101122.25;5092202;27;51064;-41
2021/12/11 05:30:34;;;;;;;;;1.00;1.00;;;;;19.24;36.89;101121.41;5099134;27;52801;-47
2021/12/11 05:32:59;;;;;;;;;0.00;0.00;;;;;19.24;36.92;101135.16;5086967;27;51098;-47
2021/12/11 05:35:27;;;;;;;;;0.75;0.75;;;;;19.23;36.98;101139.78;5084568;27;51105;-44
2021/12/11 05:37:53;;;;;;;;;0.75;0.25;;;;;19.22;36.83;101135.34;5079473;27;51209;-46
2021/12/11 05:40:21;;;;;;;;;0.50;0.00;;;;;19.23;36.96;101149.94;5104883;27;51176;-46
2021/12/11 05:42:48;;;;;;;;;0.75;0.75;;;;;19.22;36.77;101156.47;5082044;27;51090;-47
2021/12/11 05:45:14;;;;;;;;;1.00;1.00;;;;;19.21;37.08;101163.88;5085234;27;50987;-42
2021/12/11 05:47:39;;;;;;;;;0.25;0.25;;;;;19.21;37.02;101168.53;5081988;27;50909;-41
2021/12/11 05:50:08;;;;;;;;;0.00;0.00;;;;;19.20;37.03;101169.56;5084285;27;53521;-41
2021/12/11 05:52:34;;;;;;;;;0.00;0.00;;;;;19.19;36.89;101176.97;5080771;27;51308;-42
2021/12/11 05:54:59;;;;;;;;;1.00;1.00;;;;;19.19;36.83;101182.47;5086490;27;51038;-41
2021/12/11 05:57:26;;;;;;;;;0.00;0.00;;;;;19.16;36.95;101188.34;5111188;27;51461;-41
2021/12/11 05:59:52;;;;;;;;;0.50;0.00;;;;;19.16;36.74;101193.84;5088833;27;51792;-42
2021/12/11 06:02:26;;;;;;;;;1.00;1.00;;;;;19.17;36.95;101200.19;5081814;27;51054;-41
2021/12/11 06:04:55;;;;;;;;;0.00;0.00;;;;;19.17;36.87;101208.41;5090296;27;51031;-41
2021/12/11 06:07:24;;;;;;;;;2.00;2.00;;;;;19.14;36.84;101211.56;5091665;27;51396;-41
2021/12/11 06:09:53;;;;;;;;;0.00;0.00;;;;;19.13;36.96;101216.22;5090701;27;51975;-41
2021/12/11 06:12:21;;;;;;;;;2.00;0.25;;;;;19.13;36.61;101220.88;5083404;27;51385;-41
2021/12/11 06:14:50;;;;;;;;;2.75;0.00;;;;;19.12;36.93;101214.53;5076046;27;51304;-47
2021/12/11 06:17:19;;;;;;;;;0.25;0.25;;;;;19.12;36.83;101213.69;5094172;27;51523;-41
2021/12/11 06:19:52;;;;;;;;;1.00;1.00;;;;;19.12;37.09;101219.19;5089082;27;53205;-41
2021/12/11 06:22:20;;;;;;;;;0.00;0.00;;;;;19.11;36.87;101217.50;5088315;27;51049;-41
2021/12/11 06:24:46;;;;;;;;;1.50;1.00;;;;;19.11;36.88;101225.72;5087492;27;51058;-41
2021/12/11 06:27:11;;;;;;;;;0.00;0.00;;;;;19.10;37.02;101224.03;5084645;27;51140;-41
2021/12/11 06:29:37;;;;;;;;;1.75;0.00;;;;;19.09;37.03;101225.09;5085583;27;51122;-45
2021/12/11 06:32:03;;;;;;;;;0.25;0.25;;;;;19.08;36.88;101229.72;5075517;27;51105;-45
2021/12/11 06:34:31;;;;;;;;;1.50;0.50;;;;;19.08;36.94;101240.72;5089223;27;51446;-44
2021/12/11 06:36:57;;;;;;;;;0.25;0.25;;;;;19.06;37.07;101237.31;5112674;27;51168;-45
2021/12/11 06:39:24;;;;;;;;;1.00;1.00;;;;;19.07;37.18;101241.78;5087995;27;51905;-45
2021/12/11 06:41:55;;;;;;;;;0.75;0.75;;;;;19.06;36.84;101239.19;5103596;27;51104;-45
2021/12/11 06:44:27;;;;;;;;;0.00;0.00;;;;;19.04;37.10;101240.25;5086304;27;51151;-49
2021/12/11 06:46:54;;;;;;;;;0.00;0.00;;;;;19.04;36.79;101247.66;5086180;27;51173;-41
2021/12/11 06:49:20;;;;;;;;;0.75;0.75;;;;;19.04;36.78;101256.72;5103978;27;53797;-41
2021/12/11 06:51:46;;;;;;;;;0.50;0.50;;;;;19.03;36.87;101268.75;5102158;27;51347;-42
2021/12/11 06:54:12;;;;;;;;;1.00;1.00;;;;;19.03;36.98;101271.50;5100264;27;51233;-44
2021/12/11 06:56:39;;;;;;;;;1.00;1.00;;;;;19.02;36.99;101283.53;5082885;27;51035;-42
2021/12/11 06:59:04;;;;;;;;;0.75;0.75;;;;;19.02;36.96;101286.28;5087055;27;51899;-41
2021/12/11 07:01:30;;;;;;;;;0.50;0.50;;;;;19.02;36.80;101290.94;5092108;27;51129;-42
2021/12/11 07:03:59;;;;;;;;;0.25;0.00;;;;;19.01;36.88;101300.22;5085587;27;51096;-41
2021/12/11 07:06:26;;;;;;;;;0.50;0.50;;;;;19.01;36.97;101303.81;5086970;27;52265;-41
2021/12/11 07:08:53;;;;;;;;;1.00;0.00;;;;;19.00;36.75;101304.88;5086506;27;51075;-42
2021/12/11 07:11:19;;;;;;;;;1.00;0.75;;;;;19.00;36.87;101315.84;5089014;27;50974;-41
2021/12/11 07:13:45;;;;;;;;;1.75;1.00;;;;;18.99;36.90;101313.31;5086389;27;51189;-41
2021/12/11 07:16:11;;;;;;;;;2.00;0.50;;;;;18.99;36.94;101318.81;5087720;27;51012;-43
2021/12/11 07:18:37;;;;;;;;;0.50;0.00;;;;;18.99;36.88;101327.03;5087334;27;51014;-41
2021/12/11 07:21:04;;;;;;;;;0.00;0.00;;;;;18.98;36.99;101339.06;5088376;27;51141;-41
2021/12/11 07:23:30;;;;;;;;;1.00;1.00;;;;;18.96;36.92;101339.25;5086414;27;51505;-41
2021/12/11 07:26:01;;;;;;;;;0.50;0.50;;;;;18.97;36.92;101351.09;5090448;27;51171;-43
2021/12/11 07:28:28;;;;;;;;;0.00;0.00;;;;;18.96;36.97;101347.50;5083052;27;52380;-45
2021/12/11 07:30:57;;;;;;;;;2.00;0.00;;;;;18.95;36.95;101345.78;5086534;27;51302;-41
2021/12/11 07:33:23;;;;;;;;;2.00;2.00;;;;;18.95;37.05;101353.19;5098812;27;51482;-42
2021/12/11 07:35:50;;;;;;;;;1.75;1.75;;;;;18.94;36.82;101346.00;5082251;27;51104;-42
2021/12/11 07:38:16;;;;;;;;;2.25;1.00;;;;;18.94;36.96;101348.75;5089019;27;50940;-42
2021/12/11 07:40:49;;;;;;;;;0.25;0.25;;;;;18.94;36.93;101354.22;5090239;27;50952;-41
2021/12/11 07:43:16;;;;;;;;;0.00;0.00;;;;;18.93;36.80;101361.63;5100091;27;52031;-42
2021/12/11 07:45:43;;;;;;;;;0.25;0.25;;;;;18.92;37.15;101370.91;5087040;27;50927;-42
2021/12/11 07:48:09;;;;;;;;;1.00;1.00;;;;;18.93;37.04;101374.50;5088806;27;50913;-43
2021/12/11 07:50:35;;;;;;;;;0.50;0.50;;;;;18.92;36.97;101381.88;5082875;27;51052;-45
2021/12/11 07:53:01;;;;;;;;;0.00;0.00;;;;;18.91;36.68;101388.44;5081345;27;51563;-46
2021/12/11 07:55:26;;;;;;;;;2.00;1.00;;;;;18.90;37.04;101392.22;5098199;27;51038;-47
2021/12/11 07:57:53;;;;;;;;;0.25;0.25;;;;;18.90;37.16;101392.22;5083309;27;51434;-46
2021/12/11 08:00:23;;;;;;;;;2.25;1.50;;;;;18.90;36.96;101397.72;5086695;27;51085;-45
2021/12/11 08:02:49;;;;;;;;;0.00;0.00;;;;;18.90;37.06;101402.38;5094130;27;50922;-49
2021/12/11 08:05:15;;;;;;;;;4.75;4.50;;;;;18.87;35.70;101408.25;5083085;27;51309;-47
2021/12/11 08:07:42;;;;;;;;;5.75;3.00;;;;;18.77;35.03;101394.88;5089106;27;51060;-44
2021/12/11 08:10:12;;;;;;;;;6.00;2.25;;;;;18.68;35.32;101402.38;5088403;27;50988;-42
2021/12/11 08:12:38;;;;;;;;;6.50;3.25;;;;;18.67;35.13;101408.06;5078062;27;51493;-42
2021/12/11 08:15:05;;;;;;;;;3.75;3.00;;;;;18.70;35.09;101413.16;5109291;27;51388;-43
2021/12/11 08:17:31;;;;;;;;;4.00;1.75;;;;;18.75;35.08;101417.00;5078732;27;51871;-42
2021/12/11 08:19:56;;;;;;;;;6.00;2.00;;;;;18.82;35.41;101430.78;5081494;27;51307;-44
2021/12/11 08:22:22;;;;;;;;;1.75;1.00;;;;;18.90;35.46;101436.16;5104567;27;51163;-44
2021/12/11 08:24:48;;;;;;;;;5.50;3.00;;;;;18.97;35.42;101433.47;5082664;27;51017;-43
2021/12/11 08:27:18;;;;;;;;;2.75;1.75;;;;;19.06;35.30;101436.91;5092336;27;53536;-43
2021/12/11 08:29:46;;;;;;;;;2.00;2.00;;;;;19.12;35.52;101430.63;5083345;27;51246;-45
2021/12/11 08:32:12;;;;;;;;;1.25;1.25;;;;;19.19;35.62;101432.38;5067541;27;51397;-42
2021/12/11 08:34:39;;;;;;;;;3.25;2.00;;;;;19.26;35.38;101437.91;5071110;27;51477;-49
2021/12/11 08:37:08;;;;;;;;;1.00;0.50;;;;;19.34;35.52;101448.75;5075098;27;51423;-44
2021/12/11 08:39:34;;;;;;;;;2.25;1.25;;;;;19.41;35.41;101452.41;5087783;27;51351;-46
2021/12/11 08:42:02;;;;;;;;;5.00;2.00;;;;;19.48;35.58;101450.53;5073996;27;51062;-45
2021/12/11 08:44:34;;;;;;;;;4.00;1.50;;;;;19.56;35.37;101447.66;5083143;27;51234;-45
2021/12/11 08:47:03;;;;;;;;;3.00;2.00;;;;;19.66;35.64;101436.31;5069239;27;51712;-50
2021/12/11 08:49:32;;;;;;;;;5.75;3.75;;;;;19.74;35.73;101443.56;5079212;27;51150;-45
2021/12/11 08:52:00;;;;;;;;;1.75;1.75;;;;;19.82;35.49;101451.63;5085875;27;51018;-44
2021/12/11 08:54:28;;;;;;;;;1.75;1.75;;;;;19.88;35.45;101448.91;5080980;27;51327;-48
2021/12/11 08:56:57;;;;;;;;;1.25;1.00;;;;;19.96;35.87;101458.91;5074107;27;50948;-44
2021/12/11 08:59:26;;;;;;;;;2.25;2.25;;;;;20.04;35.75;101460.63;5077283;27;51232;-45
2021/12/11 09:02:09;;;;;;;;;1.00;1.00;;;;;20.11;36.00;101472.50;5074848;27;51126;-45
2021/12/11 09:04:46;;;;;;;;;5.25;3.00;;;;;20.19;36.24;101478.66;5071602;27;51082;-44
2021/12/11 09:07:30;;;;;;;;;3.00;3.00;;;;;20.27;36.14;101476.81;5076490;27;51834;-46
2021/12/11 09:10:18;;;;;;;;;3.75;3.00;;;;;20.36;36.04;101478.31;5062229;27;51359;-46
2021/12/11 09:13:01;;;;;;;;;2.75;2.50;;;;;20.44;35.74;101478.19;5080828;27;51038;-46
2021/12/11 09:15:33;;;;;;;;;4.50;3.00;;;;;20.51;35.47;101490.03;5074414;27;51317;-45
2021/12/11 09:18:05;;;;;;;;;4.75;2.00;;;;;20.59;35.97;101491.75;5069397;27;51263;-45
2021/12/11 09:20:33;;;;;;;;;3.50;2.00;;;;;20.65;35.88;101496.44;5069725;27;51561;-46
2021/12/11 09:23:12;;;;;;;;;2.00;2.00;;;;;20.73;35.44;101502.59;5075849;27;50959;-46
2021/12/11 09:26:04;;;;;;;;;4.50;3.00;;;;;20.80;35.45;101502.59;5074351;27;51216;-47
2021/12/11 09:28:45;;;;;;;;;1.75;1.75;;;;;20.89;35.63;101508.78;5070726;27;51219;-46
2021/12/11 09:31:27;;;;;;;;;6.00;3.00;;;;;20.95;35.56;101517.06;5074058;27;51352;-45
2021/12/11 09:33:58;;;;;;;;;1.25;1.25;;;;;21.02;35.72;101525.31;5074661;27;51251;-44
2021/12/11 09:36:30;;;;;;;;;4.00;3.00;;;;;21.08;35.51;101524.50;5069082;27;51241;-43
2021/12/11 09:39:05;;;;;;;;;3.25;1.75;;;;;21.15;35.56;101530.84;5071745;27;51155;-43
2021/12/11 09:41:30;;;;;;;;;3.00;3.00;;;;;21.20;35.36;101533.81;5072001;27;51117;-45
2021/12/11 09:44:11;;;;;;;;;4.67;2.67;;;;;21.27;35.18;101539.38;5071432;27;51323;-42
2021/12/11 09:46:53;;;;;;;;;3.00;3.00;;;;;21.33;35.37;101538.53;5063272;27;51165;-43
2021/12/11 09:49:23;;;;;;;;;2.50;2.50;;;;;21.39;35.25;101542.34;5071057;27;51900;-46
2021/12/11 09:51:59;;;;;;;;;3.00;2.25;;;;;21.42;35.16;101544.69;5069480;27;51240;-45
2021/12/11 09:54:24;;;;;;;;;2.75;2.00;;;;;21.47;35.55;101553.19;5070648;27;51206;-45
2021/12/11 09:56:58;;;;;;;;;2.25;2.00;;;;;21.52;35.08;101545.09;5071106;27;51288;-45
2021/12/11 09:59:25;;;;;;;;;0.75;0.75;;;;;21.57;35.41;101546.16;5074388;27;51090;-45
2021/12/11 10:01:58;;;;;;;;;2.50;1.25;;;;;21.61;35.61;101552.94;5077590;27;51981;-47
2021/12/11 10:04:31;;;;;;;;;5.00;4.00;;;;;21.64;35.25;101559.09;5094341;27;51135;-44
2021/12/11 10:09:38;;;;;;;;;4.25;3.50;;;;;21.61;35.15;101568.63;5080873;27;51780;-46
2021/12/11 10:12:14;;;;;;;;;3.75;2.00;;;;;21.57;35.66;101575.63;5074383;27;51257;-46
2021/12/11 10:14:44;;;;;;;;;5.25;2.00;;;;;21.55;35.83;101580.50;5073881;27;51161;-45
2021/12/11 10:17:15;;;;;;;;;3.00;2.25;;;;;21.52;35.73;101580.94;5077532;27;51252;-46
2021/12/11 10:19:43;;;;;;;;;2.00;2.00;;;;;21.49;35.88;101570.34;5074472;27;51796;-45
2021/12/11 10:22:21;;;;;;;;;4.25;3.00;;;;;21.47;35.60;101578.81;5082282;27;51244;-45
2021/12/11 10:24:48;;;;;;;;;6.75;3.75;;;;;21.49;34.94;101570.34;5077135;27;50988;-46
2021/12/11 10:27:17;;;;;;;;;3.75;3.75;;;;;21.53;35.31;101571.59;5084542;27;51320;-46
2021/12/11 10:29:45;;;;;;;;;3.00;2.75;;;;;21.60;35.15;101577.97;5081587;27;51075;-44
2021/12/11 10:32:18;;;;;;;;;3.50;2.00;;;;;21.64;35.29;101573.72;5070882;27;51432;-43
2021/12/11 10:34:48;;;;;;;;;4.75;3.25;;;;;21.70;35.09;101567.38;5068862;27;51245;-44
2021/12/11 10:37:17;;;;;;;;;3.00;3.00;;;;;21.75;34.90;101563.94;5076860;27;51157;-44
2021/12/11 10:39:49;;;;;;;;;3.50;3.25;;;;;21.80;35.20;101566.94;5076252;27;51168;-47
2021/12/11 10:42:16;;;;;;;;;4.25;4.25;;;;;21.82;34.80;101573.94;5070951;27;51438;-44
2021/12/11 10:44:47;;;;;;;;;4.25;3.75;;;;;21.85;34.71;101573.50;5083929;27;51078;-47
2021/12/11 10:47:20;;;;;;;;;7.50;5.00;;;;;21.88;35.03;101574.97;5084289;27;52405;-46
2021/12/11 10:49:48;;;;;;;;;4.25;3.00;;;;;21.89;34.78;101588.56;5088436;27;51912;-45
2021/12/11 10:52:19;;;;;;;;;4.75;3.50;;;;;21.93;34.83;101582.63;5074316;27;51112;-47
2021/12/11 10:54:47;;;;;;;;;2.50;2.50;;;;;21.94;34.96;101582.41;5080065;27;51462;-45
2021/12/11 10:57:15;;;;;;;;;7.50;5.25;;;;;21.96;34.75;101580.25;5077411;27;51062;-43
2021/12/11 10:59:43;;;;;;;;;4.00;4.00;;;;;21.97;34.96;101589.38;5080402;27;52335;-45
2021/12/11 11:02:28;;;;;;;;;4.75;3.25;;;;;21.96;34.60;101584.94;5078297;27;51204;-44
2021/12/11 11:05:13;;;;;;;;;5.50;4.25;;;;;21.92;35.09;101583.69;5078634;27;51144;-43
2021/12/11 11:07:40;;;;;;;;;4.25;3.25;;;;;21.85;35.27;101587.28;5075130;27;51172;-44
2021/12/11 11:10:12;;;;;;;;;7.75;6.00;;;;;21.77;35.29;101593.00;5092111;27;53826;-45
2021/12/11 11:12:38;;;;;;;;;5.50;5.50;;;;;21.70;35.85;101594.09;5098353;27;51069;-43
2021/12/11 11:15:05;;;;;;;;;5.25;3.50;;;;;21.64;36.27;101597.69;5067415;27;51085;-46
2021/12/11 11:17:34;;;;;;;;;3.50;3.50;;;;;21.57;36.59;101598.56;5106578;27;51292;-43
2021/12/11 11:20:03;;;;;;;;;7.75;5.75;;;;;21.59;36.93;101595.59;5083872;27;51154;-44
2021/12/11 11:22:32;;;;;;;;;4.25;3.50;;;;;21.64;36.83;101590.25;5076263;27;51112;-43
2021/12/11 11:25:10;;;;;;;;;4.75;3.50;;;;;21.69;37.22;101587.72;5082533;27;51115;-43
2021/12/11 11:27:36;;;;;;;;;5.25;3.25;;;;;21.77;36.62;101593.00;5066034;27;51683;-43
2021/12/11 11:30:08;;;;;;;;;4.75;4.50;;;;;21.82;37.66;101579.44;5076010;27;52725;-45
2021/12/11 11:32:34;;;;;;;;;3.00;3.00;;;;;21.86;37.22;101577.09;5078297;27;51441;-42
2021/12/11 11:35:09;;;;;;;;;1.00;1.00;;;;;21.85;37.47;101578.16;5081630;27;51226;-44
2021/12/11 11:37:35;;;;;;;;;2.00;2.00;;;;;21.80;37.99;101589.00;5080570;27;51100;-44
2021/12/11 11:40:07;;;;;;;;;5.75;4.00;;;;;21.75;38.25;101588.78;5084297;27;51365;-43
2021/12/11 11:42:34;;;;;;;;;7.50;5.75;;;;;21.70;37.85;101592.19;5075699;27;52517;-44
2021/12/11 11:45:00;;;;;;;;;6.75;5.00;;;;;21.65;37.97;101586.44;5079908;27;51196;-45
2021/12/11 11:47:25;;;;;;;;;7.50;6.25;;;;;21.60;38.48;101591.75;5071299;27;51795;-47
2021/12/11 11:49:58;;;;;;;;;4.00;3.75;;;;;21.55;37.99;101594.28;5066722;27;51724;-44
2021/12/11 11:52:24;;;;;;;;;7.00;5.25;;;;;21.49;38.14;101598.75;5068603;27;51255;-47